createdAt,value
2019-03-27T00:22:46.611Z,102263.89
2019-03-27T00:26:53.178Z,102262.50
2019-03-27T00:30:59.404Z,102263.23
2019-03-27T01:00:16.525Z,102248.38
2019-03-27T01:37:22.621Z,102250.41
2019-03-27T02:24:13.705Z,102251.19
2019-03-27T02:28:25.207Z,102250.75
2019-03-27T02:37:26.000Z,102243.37
2019-03-27T02:41:46.874Z,102247.66
2019-03-27T02:46:02.073Z,102243.79
2019-03-27T02:55:13.268Z,102251.33
2019-03-27T03:23:27.125Z,102234.19
2019-03-27T03:27:42.956Z,102231.72
2019-03-27T03:31:48.906Z,102224.91
2019-03-27T03:36:03.140Z,102243.62
2019-03-27T03:55:05.293Z,102253.67
2019-03-27T04:28:07.945Z,102276.50
2019-03-27T04:32:13.924Z,102286.67
2019-03-27T04:36:19.780Z,102286.75
2019-03-27T04:40:25.587Z,102294.53
2019-03-27T04:48:57.918Z,102303.19
2019-03-27T04:53:05.613Z,102313.98
2019-03-27T04:57:18.909Z,102312.55
2019-03-27T05:01:24.737Z,102315.81
2019-03-27T05:05:30.628Z,102311.08
2019-03-27T05:09:36.710Z,102305.71
2019-03-27T05:13:46.319Z,102301.81
2019-03-27T05:17:52.125Z,102301.65
2019-03-27T05:21:57.964Z,102301.16
2019-03-27T05:26:03.859Z,102309.44
2019-03-27T05:30:10.269Z,102311.98
2019-03-27T05:34:16.104Z,102322.55
2019-03-27T05:38:24.834Z,102319.75
2019-03-27T05:46:49.292Z,102325.75
2019-03-27T05:50:55.026Z,102324.50
2019-03-27T05:59:34.602Z,102335.45
2019-03-27T06:03:40.295Z,102335.53
2019-03-27T06:07:46.267Z,102339.16
2019-03-27T06:12:04.081Z,102338.95
2019-03-27T06:16:17.215Z,102345.19
2019-03-27T06:20:23.371Z,102351.64
2019-03-27T06:24:29.147Z,102349.42
2019-03-27T06:28:37.978Z,102354.11
2019-03-27T06:32:43.770Z,102357.19
2019-03-27T06:36:49.604Z,102350.56
2019-03-27T06:40:55.344Z,102362.55
2019-03-27T06:54:03.869Z,102366.20
2019-03-27T06:58:09.583Z,102372.59
2019-03-27T07:02:17.116Z,102363.83
2019-03-27T07:06:22.864Z,102376.89
2019-03-27T07:10:28.647Z,102384.75
2019-03-27T07:14:34.416Z,102391.70
2019-03-27T07:18:40.709Z,102389.78
2019-03-27T07:23:06.859Z,102401.77
2019-03-27T07:27:14.071Z,102405.36
2019-03-27T07:31:20.264Z,102399.23
2019-03-27T07:35:26.110Z,102408.34
2019-03-27T07:39:31.908Z,102409.87
2019-03-27T07:43:37.674Z,102407.84
2019-03-27T07:47:43.547Z,102412.91
2019-03-27T07:51:49.320Z,102415.84
2019-03-27T07:55:55.138Z,102412.38
2019-03-27T08:00:01.351Z,102421.83
2019-03-27T08:04:07.271Z,102417.95
2019-03-27T08:12:31.124Z,102430.48
2019-03-27T08:17:07.975Z,102426.52
2019-03-27T08:21:17.422Z,102418.05
2019-03-27T08:25:24.003Z,102422.31
2019-03-27T08:29:31.171Z,102419.91
2019-03-27T08:33:37.851Z,102415.38
2019-03-27T08:37:45.355Z,102414.95
2019-03-27T08:41:52.874Z,102418.08
2019-03-27T08:45:58.690Z,102419.69
2019-03-27T08:50:06.000Z,102418.78
2019-03-27T08:54:11.885Z,102421.47
2019-03-27T08:58:17.870Z,102424.66
2019-03-27T09:02:23.575Z,102431.70
2019-03-27T09:06:33.934Z,102439.72
2019-03-27T09:10:42.836Z,102439.13
2019-03-27T09:14:48.616Z,102437.59
2019-03-27T09:18:54.401Z,102435.12
2019-03-27T09:23:00.135Z,102442.08
2019-03-27T09:27:05.886Z,102441.64
2019-03-27T09:31:13.603Z,102450.12
2019-03-27T09:35:21.000Z,102457.81
2019-03-27T09:39:47.121Z,102455.34
2019-03-27T09:43:53.232Z,102454.44
2019-03-27T09:47:59.493Z,102456.69
2019-03-27T09:52:05.745Z,102450.22
2019-03-27T09:56:19.002Z,102451.45
2019-03-27T10:04:56.139Z,102454.79
2019-03-27T10:09:09.371Z,102462.73
2019-03-27T10:13:35.445Z,102453.50
2019-03-27T10:17:41.285Z,102460.20
2019-03-27T10:21:47.086Z,102468.43
2019-03-27T10:25:53.181Z,102480.38
2019-03-27T10:29:58.998Z,102479.12
2019-03-27T10:34:08.786Z,102476.91
2019-03-27T10:38:14.994Z,102477.34
2019-03-27T10:42:20.853Z,102488.63
2019-03-27T10:46:26.622Z,102487.42
2019-03-27T10:50:32.609Z,102486.11
2019-03-27T10:54:38.432Z,102483.77
2019-03-27T10:58:55.435Z,102482.84
2019-03-27T11:03:34.474Z,102490.94
2019-03-27T11:07:48.451Z,102498.13
2019-03-27T11:11:54.334Z,102495.22
2019-03-27T11:16:00.290Z,102493.51
2019-03-27T11:20:38.041Z,102497.48
2019-03-27T11:24:43.843Z,102492.88
2019-03-27T11:28:49.591Z,102479.84
2019-03-27T11:32:55.351Z,102485.22
2019-03-27T11:37:01.981Z,102480.40
2019-03-27T11:41:12.250Z,102478.86
2019-03-27T11:45:23.162Z,102485.52
2019-03-27T11:54:05.029Z,102475.93
2019-03-27T11:58:13.474Z,102481.84
2019-03-27T12:02:57.732Z,102473.14
2019-03-27T12:07:03.812Z,102473.28
2019-03-27T12:11:09.681Z,102476.06
2019-03-27T12:15:35.745Z,102467.16
2019-03-27T12:19:41.992Z,102472.94
2019-03-27T12:23:47.813Z,102467.06
2019-03-27T12:27:53.604Z,102459.97
2019-03-27T12:31:59.350Z,102463.37
2019-03-27T12:36:05.210Z,102458.50
2019-03-27T12:40:12.056Z,102452.48
2019-03-27T12:44:18.085Z,102461.38
2019-03-27T12:48:24.782Z,102451.70
2019-03-27T12:52:30.711Z,102435.30
2019-03-27T12:56:36.562Z,102435.30
2019-03-27T13:00:43.471Z,102443.03
2019-03-27T13:04:50.991Z,102430.58
2019-03-27T13:08:56.742Z,102435.98
2019-03-27T13:13:02.554Z,102432.20
2019-03-27T13:17:08.275Z,102435.12
2019-03-27T13:21:25.722Z,102433.03
2019-03-27T13:25:39.662Z,102432.66
2019-03-27T13:29:47.424Z,102439.50
2019-03-27T13:33:53.709Z,102436.91
2019-03-27T13:37:59.684Z,102435.40
2019-03-27T13:42:06.837Z,102443.30
2019-03-27T13:46:13.004Z,102442.26
2019-03-27T13:54:37.690Z,102447.50
2019-03-27T13:59:08.498Z,102442.02
2019-03-27T14:03:15.935Z,102421.16
2019-03-27T14:07:21.771Z,102437.38
2019-03-27T14:11:27.669Z,102433.55
2019-03-27T14:15:33.528Z,102435.12
2019-03-27T14:19:39.269Z,102436.59
2019-03-27T14:23:45.096Z,102443.91
2019-03-27T14:27:50.898Z,102442.23
2019-03-27T14:31:56.646Z,102445.28
2019-03-27T14:36:02.455Z,102445.80
2019-03-27T14:44:48.804Z,102440.73
2019-03-27T14:48:54.922Z,102432.83
2019-03-27T14:53:00.725Z,102432.83
2019-03-27T14:57:06.614Z,102431.50
2019-03-27T15:01:12.750Z,102426.80
2019-03-27T15:05:18.604Z,102437.27
2019-03-27T15:09:24.373Z,102432.77
2019-03-27T15:13:30.174Z,102435.73
2019-03-27T15:17:36.025Z,102437.98
2019-03-27T15:21:41.781Z,102429.64
2019-03-27T15:25:48.292Z,102432.31
2019-03-27T15:30:14.248Z,102422.99
2019-03-27T15:34:42.957Z,102424.66
2019-03-27T15:43:33.490Z,102413.47
2019-03-27T15:52:11.887Z,102421.45
2019-03-27T15:56:17.853Z,102424.45
2019-03-27T16:00:23.682Z,102424.66
2019-03-27T16:04:30.423Z,102427.54
2019-03-27T16:08:36.891Z,102426.37
2019-03-27T16:12:42.840Z,102425.92
2019-03-27T16:17:01.571Z,102420.00
2019-03-27T16:21:15.311Z,102426.22
2019-03-27T16:25:21.064Z,102425.58
2019-03-27T16:29:26.855Z,102422.58
2019-03-27T16:33:32.683Z,102428.53
2019-03-27T16:37:38.383Z,102436.27
2019-03-27T16:41:44.157Z,102429.30
2019-03-27T16:45:50.589Z,102424.45
2019-03-27T16:49:56.481Z,102429.94
2019-03-27T16:54:02.253Z,102424.85
2019-03-27T16:58:08.077Z,102418.09
2019-03-27T17:02:13.960Z,102417.83
2019-03-27T17:06:19.971Z,102419.77
2019-03-27T17:10:25.778Z,102422.20
2019-03-27T17:14:31.683Z,102429.94
2019-03-27T17:18:38.044Z,102426.75
2019-03-27T17:22:43.889Z,102424.41
2019-03-27T17:26:49.929Z,102423.08
2019-03-27T17:30:57.259Z,102428.48
2019-03-27T17:35:03.244Z,102437.38
2019-03-27T17:39:09.877Z,102438.36
2019-03-27T17:43:16.372Z,102438.52
2019-03-27T17:47:22.225Z,102439.45
2019-03-27T17:51:27.997Z,102436.61
2019-03-27T17:55:34.050Z,102430.63
2019-03-27T17:59:40.001Z,102432.20
2019-03-27T18:04:25.400Z,102436.41
2019-03-27T18:08:31.473Z,102444.55
2019-03-27T18:12:37.250Z,102450.55
2019-03-27T18:26:53.054Z,102456.90
2019-03-27T18:30:59.041Z,102470.14
2019-03-27T18:35:05.391Z,102467.06
2019-03-27T18:44:26.999Z,102471.40
2019-03-27T18:48:34.322Z,102467.25
2019-03-27T18:52:40.176Z,102466.44
2019-03-27T18:56:46.039Z,102476.31
2019-03-27T19:00:51.936Z,102479.08
2019-03-27T19:04:58.698Z,102485.50
2019-03-27T19:09:16.912Z,102490.45
2019-03-27T19:13:22.693Z,102489.53
2019-03-27T19:17:28.584Z,102488.81
2019-03-27T19:21:34.338Z,102493.69
2019-03-27T19:25:54.285Z,102493.56
2019-03-27T19:30:27.367Z,102492.02
2019-03-27T19:38:51.515Z,102497.98
2019-03-27T19:42:59.488Z,102494.58
2019-03-27T19:47:05.486Z,102485.72
2019-03-27T19:51:11.825Z,102499.48
2019-03-27T19:55:20.829Z,102500.58
2019-03-27T19:59:27.858Z,102496.56
2019-03-27T20:03:34.809Z,102491.25
2019-03-27T20:07:47.133Z,102489.27
2019-03-27T20:11:53.636Z,102494.47
2019-03-27T20:20:29.729Z,102495.16
2019-03-27T20:24:41.219Z,102495.44
2019-03-27T20:28:51.165Z,102489.48
2019-03-27T20:32:57.095Z,102500.02
2019-03-27T20:37:05.693Z,102511.67
2019-03-27T20:41:12.066Z,102517.44
2019-03-27T20:45:18.271Z,102516.39
2019-03-27T20:49:26.529Z,102511.11
2019-03-27T20:53:32.785Z,102505.02
2019-03-27T20:57:39.311Z,102503.66
2019-03-27T21:01:45.154Z,102505.25
2019-03-27T21:05:52.044Z,102504.83
2019-03-27T21:09:58.530Z,102502.81
2019-03-27T21:14:04.285Z,102506.77
2019-03-27T21:18:10.270Z,102504.09
2019-03-27T21:22:16.649Z,102504.30
2019-03-27T21:26:22.743Z,102499.61
2019-03-27T21:30:30.512Z,102508.09
2019-03-27T21:53:14.330Z,102507.13
2019-03-27T22:07:08.974Z,102515.63
2019-03-27T22:21:19.089Z,102521.66
2019-03-27T22:26:29.240Z,102529.28
2019-03-27T22:40:20.556Z,102538.56
2019-03-27T22:44:42.088Z,102525.66
2019-03-27T22:49:03.381Z,102537.93
2019-03-27T22:53:20.465Z,102535.67
2019-03-27T22:57:42.508Z,102536.34
2019-03-27T23:11:11.635Z,102533.71
2019-03-27T23:29:34.018Z,102536.95
2019-03-27T23:43:11.154Z,102529.91
2019-03-27T23:47:24.995Z,102537.77
2019-03-27T23:52:13.592Z,102536.31
2019-03-27T23:56:41.891Z,102525.36
